Time;durP1;ratioP1;P1;durP2;ratioP2;P2;SDS_P1;SDS_P2;PMS_P1;PMS_P2;Temp;Humidity;BMP_temperature;BMP_pressure;BME280_temperature;BME280_humidity;BME280_pressure;Samples;Min_cycle;Max_cycle;Signal;HPM_P1;HPM_P2
2023/04/13 00:00:51;;;;;;;21.00;15.93;;;13.20;93.20;;;;;;5006478;28;20215;-62
2023/04/13 00:03:18;;;;;;;19.80;16.83;;;13.20;93.30;;;;;;5003074;28;20200;-61
2023/04/13 00:05:47;;;;;;;20.00;15.87;;;13.20;93.30;;;;;;5005118;28;20200;-62
2023/04/13 00:08:16;;;;;;;19.20;15.37;;;13.20;93.40;;;;;;5000413;28;20196;-62
2023/04/13 00:10:44;;;;;;;19.30;15.87;;;13.20;93.30;;;;;;5016967;28;20299;-62
2023/04/13 00:13:13;;;;;;;20.40;16.50;;;13.20;93.40;;;;;;5024828;28;20207;-62
2023/04/13 00:15:42;;;;;;;19.07;15.47;;;13.20;93.40;;;;;;5002245;28;20207;-62
2023/04/13 00:18:10;;;;;;;20.40;16.03;;;13.20;93.50;;;;;;5005368;28;20216;-61
2023/04/13 00:20:40;;;;;;;21.07;16.37;;;13.20;93.60;;;;;;5008096;28;20314;-62
2023/04/13 00:23:08;;;;;;;18.70;15.10;;;13.20;93.60;;;;;;5001566;28;20207;-61
2023/04/13 00:25:35;;;;;;;18.77;15.03;;;13.10;93.70;;;;;;4999244;28;20527;-61
2023/04/13 00:28:05;;;;;;;19.20;14.77;;;13.20;93.70;;;;;;5006504;28;20286;-61
2023/04/13 00:30:32;;;;;;;21.13;16.43;;;13.20;93.70;;;;;;5003031;28;20195;-62
2023/04/13 00:33:03;;;;;;;21.00;14.67;;;13.10;93.70;;;;;;5020348;28;20201;-61
2023/04/13 00:35:30;;;;;;;18.77;14.50;;;13.20;93.70;;;;;;5016275;28;20203;-61
2023/04/13 00:37:57;;;;;;;22.53;16.30;;;13.20;93.60;;;;;;4998047;28;20218;-61
2023/04/13 00:40:26;;;;;;;18.93;15.27;;;13.20;93.60;;;;;;5007435;28;20218;-62
2023/04/13 00:42:54;;;;;;;18.43;15.33;;;13.20;93.60;;;;;;5002568;28;20210;-61
2023/04/13 00:45:21;;;;;;;20.43;15.97;;;13.20;93.60;;;;;;5005522;28;20244;-61
2023/04/13 00:47:50;;;;;;;21.77;16.93;;;13.20;93.50;;;;;;5010825;28;20226;-61
2023/04/13 00:50:22;;;;;;;21.40;16.13;;;13.20;93.40;;;;;;5004532;28;20622;-61
2023/04/13 00:52:49;;;;;;;20.93;15.60;;;13.20;93.40;;;;;;5004794;28;20215;-61
2023/04/13 00:55:19;;;;;;;24.10;17.10;;;13.20;93.30;;;;;;5006458;28;20196;-61
2023/04/13 00:57:51;;;;;;;22.30;16.00;;;13.10;93.40;;;;;;5003424;28;20554;-62
2023/04/13 01:00:20;;;;;;;20.67;17.17;;;13.10;93.40;;;;;;5038615;28;20518;-62
2023/04/13 01:02:47;;;;;;;22.83;16.97;;;13.10;93.50;;;;;;5001202;28;20211;-62
2023/04/13 01:05:15;;;;;;;19.37;16.03;;;13.10;93.50;;;;;;5007220;28;20557;-62
2023/04/13 01:07:54;;;;;;;18.83;15.97;;;13.10;93.50;;;;;;4999256;28;20281;-61
2023/04/13 01:10:34;;;;;;;21.93;16.07;;;13.10;93.60;;;;;;5020961;28;20307;-62
2023/04/13 01:13:06;;;;;;;19.17;15.40;;;13.10;93.60;;;;;;5008810;28;20231;-62
2023/04/13 01:15:38;;;;;;;23.60;16.67;;;13.20;93.60;;;;;;5002531;28;20212;-61
2023/04/13 01:18:08;;;;;;;21.17;16.63;;;13.20;93.60;;;;;;5003545;28;20212;-61
2023/04/13 01:20:39;;;;;;;22.70;16.60;;;13.30;93.70;;;;;;5041081;28;20601;-62
2023/04/13 01:23:28;;;;;;;20.03;15.20;;;13.30;93.60;;;;;;5015409;28;20203;-62
2023/04/13 01:26:00;;;;;;;19.83;15.67;;;13.40;93.60;;;;;;5002456;28;20218;-62
2023/04/13 01:28:28;;;;;;;18.97;15.50;;;13.40;93.50;;;;;;5001443;28;20536;-63
2023/04/13 01:31:00;;;;;;;22.40;17.37;;;13.40;93.50;;;;;;4989234;28;20200;-65
2023/04/13 01:33:29;;;;;;;19.93;15.67;;;13.50;93.50;;;;;;5002501;28;20204;-64
2023/04/13 01:36:02;;;;;;;20.70;16.57;;;13.40;93.60;;;;;;5025272;28;20275;-64
2023/04/13 01:38:30;;;;;;;21.20;17.40;;;13.40;93.70;;;;;;5027458;28;20207;-64
2023/04/13 01:41:00;;;;;;;25.43;17.33;;;13.40;93.80;;;;;;5010237;28;20310;-64
2023/04/13 01:43:30;;;;;;;21.43;17.53;;;13.40;94.00;;;;;;5024568;28;20593;-64
2023/04/13 01:46:15;;;;;;;22.97;17.97;;;13.40;94.20;;;;;;5034651;28;20291;-64
2023/04/13 01:48:55;;;;;;;25.07;17.93;;;13.40;94.40;;;;;;5025162;28;20249;-64
2023/04/13 01:51:44;;;;;;;22.27;18.03;;;13.30;94.40;;;;;;5010905;28;20354;-64
2023/04/13 01:54:24;;;;;;;22.03;16.93;;;13.30;94.60;;;;;;4992294;28;20238;-65
2023/04/13 01:56:55;;;;;;;21.57;16.40;;;13.30;94.70;;;;;;5021347;28;20203;-65
2023/04/13 01:59:24;;;;;;;22.60;16.63;;;13.30;94.70;;;;;;5037575;28;20200;-65
2023/04/13 02:01:51;;;;;;;24.47;17.60;;;13.20;94.80;;;;;;5003311;28;20213;-64
2023/04/13 02:04:19;;;;;;;21.53;17.07;;;13.20;94.80;;;;;;5004301;28;20200;-66
2023/04/13 02:06:47;;;;;;;23.67;16.47;;;13.20;95.20;;;;;;5031984;28;20201;-64
2023/04/13 02:09:14;;;;;;;22.93;16.70;;;13.20;95.00;;;;;;5007548;28;20236;-65
2023/04/13 02:11:43;;;;;;;21.33;15.77;;;13.10;95.00;;;;;;5008408;28;20297;-65
2023/04/13 02:14:10;;;;;;;22.40;15.70;;;13.10;95.00;;;;;;5011153;28;20210;-65
2023/04/13 02:16:39;;;;;;;20.10;15.27;;;13.00;94.80;;;;;;5013755;28;20208;-65
2023/04/13 02:19:07;;;;;;;21.33;13.33;;;13.00;94.50;;;;;;5038033;28;20200;-65
2023/04/13 02:21:35;;;;;;;17.50;14.03;;;13.00;94.30;;;;;;5010906;28;20713;-65
2023/04/13 02:24:05;;;;;;;17.27;13.90;;;12.90;93.80;;;;;;5013578;28;20629;-65
2023/04/13 02:26:36;;;;;;;15.43;12.57;;;12.80;93.50;;;;;;5022912;28;20216;-65
2023/04/13 02:29:06;;;;;;;18.07;13.07;;;12.80;93.50;;;;;;5023640;28;20550;-65
2023/04/13 02:31:34;;;;;;;14.93;12.13;;;12.70;93.30;;;;;;5021699;28;20207;-65
2023/04/13 02:34:04;;;;;;;15.80;13.20;;;12.60;93.40;;;;;;5022279;28;20204;-65
2023/04/13 02:36:33;;;;;;;18.53;13.10;;;12.60;93.50;;;;;;5008809;28;20235;-65
2023/04/13 02:39:07;;;;;;;16.97;12.13;;;12.60;93.50;;;;;;5021501;28;20207;-63
2023/04/13 02:41:35;;;;;;;14.23;10.97;;;12.60;93.40;;;;;;5005758;28;20273;-64
2023/04/13 02:44:03;;;;;;;14.97;11.27;;;12.50;93.30;;;;;;4998673;28;20242;-64
2023/04/13 02:46:41;;;;;;;15.57;11.53;;;12.50;93.20;;;;;;5008484;28;20196;-63
2023/04/13 02:49:14;;;;;;;16.00;11.23;;;12.50;93.30;;;;;;4999566;28;20271;-64
2023/04/13 02:51:52;;;;;;;14.43;11.17;;;12.40;93.40;;;;;;5039787;28;20215;-63
2023/04/13 02:54:30;;;;;;;15.03;10.07;;;12.50;93.50;;;;;;5039596;28;20290;-63
2023/04/13 02:56:57;;;;;;;19.43;12.40;;;12.50;93.40;;;;;;5023243;28;20515;-62
2023/04/13 02:59:27;;;;;;;14.70;10.73;;;12.40;93.20;;;;;;5010386;28;20215;-62
2023/04/13 03:01:57;;;;;;;15.63;11.37;;;12.40;93.30;;;;;;4996068;28;20691;-62
2023/04/13 03:04:30;;;;;;;17.03;10.67;;;12.40;93.40;;;;;;5012759;28;20519;-62
2023/04/13 03:06:58;;;;;;;13.50;11.33;;;12.40;93.50;;;;;;5010531;28;20204;-62
2023/04/13 03:09:29;;;;;;;15.60;11.37;;;12.30;93.60;;;;;;5007805;28;20215;-61
2023/04/13 03:11:56;;;;;;;12.13;10.60;;;12.30;93.60;;;;;;5034717;28;20200;-62
2023/04/13 03:14:28;;;;;;;15.27;11.60;;;12.30;93.70;;;;;;5006581;28;20204;-62
2023/04/13 03:17:03;;;;;;;16.07;11.73;;;12.30;93.80;;;;;;5009013;28;20300;-62
2023/04/13 03:19:37;;;;;;;13.70;11.67;;;12.30;93.90;;;;;;5037217;28;20235;-62
2023/04/13 03:22:05;;;;;;;14.47;11.70;;;12.30;94.00;;;;;;5028585;28;20218;-62
2023/04/13 03:24:36;;;;;;;16.43;11.20;;;12.20;93.90;;;;;;5004301;28;20262;-62
2023/04/13 03:27:07;;;;;;;12.40;10.50;;;12.20;94.00;;;;;;5003846;28;20199;-63
2023/04/13 03:29:39;;;;;;;12.43;10.37;;;12.20;94.10;;;;;;5012698;28;20226;-62
2023/04/13 03:32:11;;;;;;;14.87;11.03;;;12.20;94.10;;;;;;5004850;28;20204;-62
2023/04/13 03:34:42;;;;;;;15.90;11.13;;;12.20;94.10;;;;;;5006741;28;20212;-62
2023/04/13 03:37:12;;;;;;;13.90;11.23;;;12.10;94.20;;;;;;5008087;28;20216;-62
2023/04/13 03:39:39;;;;;;;17.23;12.33;;;12.10;94.30;;;;;;5003732;28;20231;-63
2023/04/13 03:42:10;;;;;;;15.93;11.27;;;12.00;94.40;;;;;;4997525;28;20655;-63
2023/04/13 03:44:43;;;;;;;14.30;11.53;;;12.10;94.60;;;;;;5000227;28;20247;-63
2023/04/13 03:47:10;;;;;;;13.53;11.03;;;12.10;94.60;;;;;;5003716;28;20254;-63
2023/04/13 03:49:37;;;;;;;14.50;11.63;;;12.00;94.60;;;;;;5008901;28;20200;-62
2023/04/13 03:52:04;;;;;;;16.23;12.37;;;12.00;94.60;;;;;;5004356;28;20271;-62
2023/04/13 03:54:36;;;;;;;15.60;10.83;;;12.00;94.60;;;;;;5039285;28;20200;-62
2023/04/13 03:57:04;;;;;;;15.10;11.43;;;11.90;94.80;;;;;;5026990;28;20206;-62
2023/04/13 03:59:32;;;;;;;13.57;11.07;;;11.90;94.90;;;;;;5010172;28;20208;-63
2023/04/13 04:02:01;;;;;;;13.23;10.27;;;11.90;95.00;;;;;;5006705;28;20216;-63
2023/04/13 04:04:30;;;;;;;13.17;10.30;;;11.90;95.00;;;;;;5022115;28;20207;-63
2023/04/13 04:06:58;;;;;;;13.53;10.37;;;11.90;95.10;;;;;;5035781;28;20223;-63
2023/04/13 04:09:26;;;;;;;12.33;10.20;;;11.90;95.10;;;;;;5007452;28;20227;-63
2023/04/13 04:11:55;;;;;;;14.23;10.40;;;11.90;95.10;;;;;;5010070;28;20224;-63
2023/04/13 04:14:34;;;;;;;14.93;11.27;;;11.90;95.10;;;;;;5009876;28;20204;-62
2023/04/13 04:17:10;;;;;;;14.37;10.60;;;11.80;95.10;;;;;;5008296;28;20211;-62
2023/04/13 04:19:38;;;;;;;12.50;10.07;;;11.80;95.20;;;;;;5015156;28;20228;-62
2023/04/13 04:22:05;;;;;;;13.03;9.67;;;11.80;95.40;;;;;;5039633;28;20323;-63
2023/04/13 04:24:37;;;;;;;12.97;10.40;;;11.70;95.50;;;;;;5010069;28;20220;-63
2023/04/13 04:27:04;;;;;;;12.53;10.77;;;11.70;95.50;;;;;;5005198;28;20223;-63
2023/04/13 04:29:34;;;;;;;14.90;10.73;;;11.70;95.60;;;;;;5003337;28;20203;-63
2023/04/13 04:32:13;;;;;;;14.47;11.17;;;11.80;95.70;;;;;;5005882;28;20218;-63
2023/04/13 04:34:40;;;;;;;15.23;10.50;;;11.80;95.70;;;;;;5001572;28;20225;-63
2023/04/13 04:37:12;;;;;;;12.53;10.43;;;11.80;95.80;;;;;;5019236;28;20238;-63
2023/04/13 04:39:58;;;;;;;16.23;11.20;;;11.80;95.80;;;;;;5030399;28;20609;-63
2023/04/13 04:42:26;;;;;;;13.87;11.00;;;11.80;95.80;;;;;;5006448;28;20670;-62
2023/04/13 04:44:54;;;;;;;13.20;10.60;;;11.80;95.80;;;;;;5004296;28;20240;-63
2023/04/13 04:47:23;;;;;;;14.73;10.33;;;11.80;95.80;;;;;;5039892;28;20211;-63
2023/04/13 04:50:10;;;;;;;12.80;10.27;;;11.80;95.90;;;;;;5010989;28;20214;-63
2023/04/13 04:52:40;;;;;;;13.47;10.47;;;11.80;96.00;;;;;;5001774;28;20208;-63
2023/04/13 04:55:09;;;;;;;14.30;10.27;;;11.90;96.00;;;;;;5004032;28;20212;-63
2023/04/13 04:57:39;;;;;;;13.53;10.53;;;11.90;96.00;;;;;;5014164;28;20222;-63
2023/04/13 05:00:09;;;;;;;13.40;11.00;;;11.90;96.10;;;;;;5019868;28;20270;-63
2023/04/13 05:02:38;;;;;;;16.83;11.57;;;11.90;96.00;;;;;;5010926;28;20657;-63
2023/04/13 05:05:08;;;;;;;14.30;10.97;;;11.90;96.10;;;;;;5010621;28;20410;-63
2023/04/13 05:07:37;;;;;;;13.90;10.50;;;11.90;96.00;;;;;;5012443;28;20227;-63
2023/04/13 05:10:09;;;;;;;17.00;11.47;;;12.00;96.00;;;;;;5025449;28;20219;-63
2023/04/13 05:12:42;;;;;;;13.23;10.77;;;11.90;96.00;;;;;;5020780;28;20265;-63
2023/04/13 05:15:09;;;;;;;14.90;11.40;;;12.00;96.10;;;;;;5009699;28;20648;-63
2023/04/13 05:17:36;;;;;;;14.50;11.30;;;11.90;96.00;;;;;;5042172;28;20699;-63
2023/04/13 05:20:05;;;;;;;13.50;11.53;;;12.00;96.20;;;;;;5010109;28;20201;-62
2023/04/13 05:22:48;;;;;;;15.00;11.43;;;12.00;96.20;;;;;;5007129;28;20212;-63
2023/04/13 05:25:16;;;;;;;14.60;10.83;;;12.00;96.10;;;;;;5020013;28;20568;-62
2023/04/13 05:27:44;;;;;;;15.40;11.47;;;12.00;96.20;;;;;;5024636;28;20545;-63
2023/04/13 05:30:12;;;;;;;15.00;11.20;;;12.00;96.20;;;;;;5012929;28;20279;-63
2023/04/13 05:32:42;;;;;;;17.20;11.67;;;12.00;96.20;;;;;;5014178;28;20553;-63
2023/04/13 05:35:10;;;;;;;13.77;11.20;;;12.00;96.20;;;;;;5002934;28;20221;-63
2023/04/13 05:37:38;;;;;;;16.63;10.67;;;12.10;96.30;;;;;;5012966;28;20592;-63
2023/04/13 05:40:13;;;;;;;16.30;10.53;;;12.00;96.30;;;;;;4999623;28;20222;-63
2023/04/13 05:42:42;;;;;;;14.67;11.90;;;12.10;96.30;;;;;;5002686;28;20234;-63
2023/04/13 05:45:15;;;;;;;12.67;9.83;;;12.10;96.40;;;;;;5040808;28;20741;-63
2023/04/13 05:47:57;;;;;;;16.10;11.10;;;12.10;96.40;;;;;;5004718;28;20217;-63
2023/04/13 05:50:24;;;;;;;14.40;11.37;;;12.10;96.40;;;;;;5012307;28;20207;-63
2023/04/13 05:52:51;;;;;;;14.83;11.53;;;12.10;96.40;;;;;;5002129;28;20206;-63
2023/04/13 05:55:19;;;;;;;13.77;10.67;;;12.10;96.30;;;;;;5010267;28;20280;-63
2023/04/13 05:57:53;;;;;;;13.97;10.80;;;12.20;96.50;;;;;;5019820;28;20268;-63
2023/04/13 06:00:21;;;;;;;14.03;11.03;;;12.20;96.40;;;;;;5007107;28;20222;-63
2023/04/13 06:03:00;;;;;;;13.30;11.13;;;12.10;96.40;;;;;;5014670;28;20558;-63
2023/04/13 06:05:28;;;;;;;16.60;11.07;;;12.20;96.30;;;;;;5009131;28;20589;-63
2023/04/13 06:07:55;;;;;;;14.57;10.93;;;12.10;96.30;;;;;;5034074;28;20195;-63
2023/04/13 06:10:23;;;;;;;14.30;9.97;;;12.20;96.50;;;;;;5035035;28;20257;-63
2023/04/13 06:12:51;;;;;;;12.07;10.43;;;12.20;96.60;;;;;;5008868;28;20458;-63
2023/04/13 06:15:19;;;;;;;13.10;10.70;;;12.30;96.50;;;;;;5012020;28;20649;-63
2023/04/13 06:17:50;;;;;;;13.77;10.93;;;12.30;96.40;;;;;;5013859;28;20204;-63
2023/04/13 06:20:19;;;;;;;14.47;10.77;;;12.30;96.40;;;;;;5005734;28;20227;-63
2023/04/13 06:22:47;;;;;;;13.30;11.00;;;12.30;96.60;;;;;;5010127;28;20203;-63
2023/04/13 06:25:17;;;;;;;14.33;10.90;;;12.40;96.50;;;;;;5005954;28;20203;-63
2023/04/13 06:27:46;;;;;;;13.63;11.60;;;12.50;96.50;;;;;;5035949;28;20277;-63
2023/04/13 06:30:13;;;;;;;13.90;11.10;;;12.50;96.40;;;;;;5004864;28;20630;-63
2023/04/13 06:32:41;;;;;;;14.23;11.50;;;12.60;96.50;;;;;;5011680;28;20328;-63
2023/04/13 06:35:09;;;;;;;15.53;11.77;;;12.70;96.50;;;;;;5010919;28;20204;-63
2023/04/13 06:37:42;;;;;;;14.43;11.73;;;12.70;96.00;;;;;;5021802;28;20208;-64
2023/04/13 06:40:15;;;;;;;18.83;13.10;;;12.80;96.10;;;;;;5011624;28;20238;-63
2023/04/13 06:42:50;;;;;;;17.30;11.80;;;12.80;95.90;;;;;;5040177;28;20219;-63
2023/04/13 06:45:36;;;;;;;17.77;12.00;;;12.90;95.80;;;;;;5003181;28;20702;-63
2023/04/13 06:48:07;;;;;;;16.97;13.13;;;12.90;95.80;;;;;;5006348;28;20211;-64
2023/04/13 06:50:37;;;;;;;17.50;12.90;;;12.90;95.80;;;;;;5006708;28;20206;-63
2023/04/13 06:53:06;;;;;;;13.93;11.13;;;12.90;95.70;;;;;;5006628;28;20653;-64
2023/04/13 06:55:33;;;;;;;16.20;12.33;;;12.90;95.60;;;;;;5022877;28;20299;-63
2023/04/13 06:58:00;;;;;;;20.07;13.17;;;12.90;95.70;;;;;;5036896;28;20206;-63
2023/04/13 07:00:28;;;;;;;18.60;12.90;;;12.90;95.90;;;;;;5038153;28;20648;-63
2023/04/13 07:03:00;;;;;;;16.73;13.43;;;13.00;95.90;;;;;;5017232;28;20220;-63
2023/04/13 07:05:28;;;;;;;17.83;13.63;;;13.00;95.80;;;;;;5025150;28;20694;-64
2023/04/13 07:08:02;;;;;;;17.00;13.53;;;13.10;95.80;;;;;;5010441;28;20339;-64
2023/04/13 07:10:30;;;;;;;16.30;14.27;;;13.10;95.90;;;;;;5021271;28;20264;-64
2023/04/13 07:13:02;;;;;;;16.97;12.97;;;13.20;96.00;;;;;;5013020;28;20201;-64
2023/04/13 07:15:30;;;;;;;19.03;15.20;;;13.30;96.00;;;;;;5011682;28;20219;-64
2023/04/13 07:17:58;;;;;;;18.83;14.40;;;13.40;95.90;;;;;;5008404;28;20261;-64
2023/04/13 07:20:26;;;;;;;20.13;15.00;;;13.50;95.80;;;;;;5022955;28;20212;-64
2023/04/13 07:22:53;;;;;;;19.43;15.17;;;13.50;95.60;;;;;;5009678;28;20212;-64
2023/04/13 07:25:20;;;;;;;19.23;14.93;;;13.60;95.40;;;;;;5008813;28;20214;-64
2023/04/13 07:27:48;;;;;;;19.90;15.50;;;13.60;95.30;;;;;;5011115;28;20196;-64
2023/04/13 07:30:16;;;;;;;18.73;15.00;;;13.70;95.20;;;;;;4999843;28;20283;-64
2023/04/13 07:32:45;;;;;;;19.37;14.70;;;13.70;95.00;;;;;;5038135;28;20200;-64
2023/04/13 07:35:12;;;;;;;22.70;15.77;;;13.70;95.00;;;;;;5020283;28;20216;-64
2023/04/13 07:37:41;;;;;;;20.80;16.37;;;13.70;94.70;;;;;;5010829;28;20226;-64
2023/04/13 07:40:10;;;;;;;21.77;17.00;;;13.70;94.70;;;;;;5006648;28;20552;-64
2023/04/13 07:42:40;;;;;;;21.10;17.30;;;13.70;94.90;;;;;;5024301;28;20575;-64
2023/04/13 07:45:09;;;;;;;20.00;16.97;;;13.80;95.10;;;;;;5009442;28;20239;-64
2023/04/13 07:47:37;;;;;;;21.90;15.97;;;13.90;95.20;;;;;;5014314;28;20571;-64
2023/04/13 07:50:08;;;;;;;21.53;17.33;;;14.00;95.00;;;;;;5036529;28;20208;-64
2023/04/13 07:52:36;;;;;;;22.37;17.13;;;14.10;94.70;;;;;;5004968;28;20282;-64
2023/04/13 07:55:04;;;;;;;22.53;17.57;;;14.20;94.80;;;;;;5004601;28;20335;-64
2023/04/13 07:57:35;;;;;;;20.63;17.60;;;14.30;94.80;;;;;;5039881;28;20258;-64
2023/04/13 08:00:05;;;;;;;20.37;16.03;;;14.30;94.00;;;;;;5006328;28;20304;-64
2023/04/13 08:02:39;;;;;;;22.43;17.07;;;14.30;94.10;;;;;;5003782;28;20231;-64
2023/04/13 08:05:11;;;;;;;20.53;17.30;;;14.40;94.50;;;;;;5039062;28;20636;-64
2023/04/13 08:07:39;;;;;;;20.37;16.63;;;14.30;94.20;;;;;;5009741;28;20242;-66
2023/04/13 08:10:07;;;;;;;22.23;16.57;;;14.40;94.40;;;;;;5037167;28;20246;-64
2023/04/13 08:12:34;;;;;;;21.83;17.97;;;14.40;94.30;;;;;;4998906;28;20211;-64
2023/04/13 08:15:01;;;;;;;21.90;17.27;;;14.40;94.20;;;;;;5004955;28;20207;-64
2023/04/13 08:17:28;;;;;;;22.20;17.37;;;14.30;94.30;;;;;;5007333;28;20334;-65
2023/04/13 08:19:55;;;;;;;20.13;17.60;;;14.30;94.40;;;;;;5004791;28;20191;-64
2023/04/13 08:22:23;;;;;;;24.83;17.77;;;14.40;94.60;;;;;;5010881;28;20200;-64
2023/04/13 08:24:50;;;;;;;20.70;16.83;;;14.50;94.80;;;;;;4997968;28;20208;-64
2023/04/13 08:27:18;;;;;;;21.43;16.40;;;14.60;94.90;;;;;;5029492;28;20204;-64
2023/04/13 08:29:45;;;;;;;21.63;16.23;;;14.70;94.70;;;;;;5004226;28;20291;-64
2023/04/13 08:32:13;;;;;;;22.63;15.50;;;14.80;94.90;;;;;;5035305;28;20208;-65
2023/04/13 08:34:41;;;;;;;20.70;15.87;;;14.80;94.20;;;;;;5013776;28;20207;-64
2023/04/13 08:37:10;;;;;;;20.30;16.57;;;14.80;94.10;;;;;;5042565;28;20593;-64
2023/04/13 08:39:38;;;;;;;29.60;17.70;;;14.90;94.30;;;;;;5016673;28;20261;-64
2023/04/13 08:42:06;;;;;;;22.70;17.20;;;14.90;94.50;;;;;;5035628;28;20204;-64
2023/04/13 08:44:41;;;;;;;22.50;17.30;;;15.00;94.90;;;;;;5009529;28;20609;-64
2023/04/13 08:47:10;;;;;;;24.93;18.20;;;15.20;95.10;;;;;;5024893;28;20212;-64
2023/04/13 08:49:39;;;;;;;20.93;16.50;;;15.40;94.90;;;;;;5011898;28;20215;-64
2023/04/13 08:52:14;;;;;;;20.33;16.80;;;15.60;94.30;;;;;;5010674;28;20250;-64
2023/04/13 08:54:47;;;;;;;20.47;16.30;;;15.60;93.60;;;;;;5036831;28;20211;-64
2023/04/13 08:57:21;;;;;;;20.00;16.83;;;15.70;93.80;;;;;;5013285;28;20209;-65
2023/04/13 08:59:51;;;;;;;23.23;15.57;;;15.80;93.50;;;;;;5005116;28;20222;-64
2023/04/13 09:02:27;;;;;;;17.43;15.33;;;15.80;93.20;;;;;;5041417;28;20204;-64
2023/04/13 09:05:07;;;;;;;17.77;15.27;;;16.00;93.60;;;;;;5010497;28;20299;-65
2023/04/13 09:07:35;;;;;;;20.63;15.03;;;16.20;93.60;;;;;;5009795;28;20646;-65
2023/04/13 09:10:09;;;;;;;18.90;14.73;;;16.40;92.80;;;;;;5013201;28;20264;-65
2023/04/13 09:12:39;;;;;;;21.53;16.27;;;16.50;92.50;;;;;;5013579;28;20200;-65
2023/04/13 09:15:10;;;;;;;20.97;16.07;;;16.60;92.30;;;;;;5006041;28;20193;-65
2023/04/13 09:17:45;;;;;;;16.43;14.43;;;16.80;93.30;;;;;;5005093;28;20224;-65
2023/04/13 09:20:21;;;;;;;18.03;14.73;;;17.10;93.20;;;;;;5014581;28;20197;-65
2023/04/13 09:22:49;;;;;;;18.63;14.80;;;17.40;91.00;;;;;;5011703;28;20213;-65
2023/04/13 09:25:27;;;;;;;15.37;13.37;;;17.60;91.20;;;;;;5001838;28;20663;-65
2023/04/13 09:27:55;;;;;;;17.30;15.00;;;17.70;90.20;;;;;;5005136;28;20211;-65
2023/04/13 09:30:24;;;;;;;18.30;14.97;;;17.60;88.70;;;;;;5008242;28;20201;-65
2023/04/13 09:33:05;;;;;;;19.17;15.87;;;17.50;90.00;;;;;;5008731;28;20225;-65
2023/04/13 09:35:33;;;;;;;17.23;15.43;;;17.30;89.30;;;;;;5003615;28;20240;-65
2023/04/13 09:38:00;;;;;;;14.47;12.37;;;17.30;90.30;;;;;;5010539;28;20588;-65
2023/04/13 09:40:28;;;;;;;17.73;14.37;;;17.40;90.30;;;;;;5011760;28;20209;-65
2023/04/13 09:43:05;;;;;;;16.07;14.30;;;17.50;90.50;;;;;;5006723;28;20611;-65
2023/04/13 09:45:34;;;;;;;16.57;14.73;;;17.60;89.20;;;;;;5011049;28;20239;-65
2023/04/13 09:48:15;;;;;;;15.67;13.67;;;17.70;90.10;;;;;;5005678;28;20817;-65
2023/04/13 09:50:43;;;;;;;16.97;13.00;;;17.90;90.30;;;;;;5008366;28;20234;-65
2023/04/13 09:53:10;;;;;;;15.50;12.67;;;18.10;89.90;;;;;;5011720;28;20209;-65
2023/04/13 09:55:38;;;;;;;14.33;12.83;;;18.40;89.80;;;;;;5009208;28;20214;-66
2023/04/13 09:58:13;;;;;;;18.13;13.60;;;18.60;87.30;;;;;;5006976;28;20231;-66
2023/04/13 10:00:42;;;;;;;20.97;14.33;;;18.90;87.90;;;;;;5005344;28;20206;-66
2023/04/13 10:03:10;;;;;;;14.77;13.27;;;19.00;85.00;;;;;;5001666;28;20296;-66
2023/04/13 10:05:39;;;;;;;16.43;14.50;;;19.20;84.90;;;;;;5004996;28;20255;-65
2023/04/13 10:08:24;;;;;;;12.97;11.63;;;19.30;85.10;;;;;;5000251;28;20226;-66
2023/04/13 10:11:13;;;;;;;14.57;12.40;;;19.30;82.50;;;;;;5007873;28;20639;-66
2023/04/13 10:13:55;;;;;;;18.73;14.57;;;19.50;84.20;;;;;;5002917;28;20266;-66
2023/04/13 10:16:40;;;;;;;15.27;13.40;;;19.60;82.20;;;;;;5004017;28;20251;-66
2023/04/13 10:19:18;;;;;;;14.23;12.57;;;19.60;82.20;;;;;;5008193;28;20609;-66
2023/04/13 10:21:49;;;;;;;15.73;14.13;;;19.50;82.80;;;;;;5038266;28;20507;-66
2023/04/13 10:24:17;;;;;;;15.17;12.97;;;19.30;83.50;;;;;;5005131;28;20507;-66
2023/04/13 10:26:44;;;;;;;13.97;12.50;;;19.30;84.10;;;;;;5004182;28;20612;-67
2023/04/13 10:29:13;;;;;;;13.43;10.67;;;19.40;84.00;;;;;;5005317;28;20658;-66
2023/04/13 10:31:45;;;;;;;13.07;10.27;;;19.50;84.40;;;;;;5002358;28;20273;-66
2023/04/13 10:34:42;;;;;;;11.43;10.23;;;19.70;80.80;;;;;;5002933;28;20268;-66
2023/04/13 10:37:20;;;;;;;14.07;12.57;;;19.80;80.90;;;;;;5010406;28;20220;-66
2023/04/13 10:39:49;;;;;;;14.17;11.20;;;20.10;80.80;;;;;;4999925;28;20554;-66
2023/04/13 10:42:16;;;;;;;13.13;10.30;;;20.00;79.50;;;;;;5006362;28;20215;-66
2023/04/13 10:44:52;;;;;;;11.80;9.67;;;20.10;79.20;;;;;;5000048;28;20267;-66
2023/04/13 10:47:20;;;;;;;12.63;11.37;;;20.00;77.70;;;;;;5006067;28;20241;-66
2023/04/13 10:49:49;;;;;;;13.07;11.77;;;20.00;78.40;;;;;;5006183;28;20191;-66
2023/04/13 10:52:16;;;;;;;13.57;9.50;;;20.10;79.60;;;;;;5006437;28;20208;-66
2023/04/13 10:54:43;;;;;;;11.97;10.27;;;20.20;80.80;;;;;;5007870;28;20519;-66
2023/04/13 10:57:11;;;;;;;13.30;10.50;;;20.40;78.60;;;;;;5006894;28;20212;-66
2023/04/13 10:59:43;;;;;;;12.20;11.00;;;20.50;77.10;;;;;;5003044;28;20222;-66
2023/04/13 11:02:28;;;;;;;14.97;13.47;;;20.40;76.00;;;;;;5000971;28;20204;-66
2023/04/13 11:04:57;;;;;;;14.77;12.93;;;20.20;77.10;;;;;;5005929;28;20224;-66
2023/04/13 11:07:27;;;;;;;13.67;11.13;;;20.00;77.90;;;;;;5007593;28;20206;-66
2023/04/13 11:09:59;;;;;;;13.30;11.77;;;19.80;79.40;;;;;;5008318;28;20222;-66
2023/04/13 11:12:30;;;;;;;13.23;11.87;;;19.70;79.80;;;;;;5000467;28;20195;-66
2023/04/13 11:14:57;;;;;;;13.73;11.77;;;19.60;80.00;;;;;;5005182;28;20203;-66
2023/04/13 11:17:24;;;;;;;13.43;12.03;;;19.60;80.90;;;;;;5000346;28;20266;-66
2023/04/13 11:19:53;;;;;;;15.43;12.10;;;19.70;80.30;;;;;;5005512;28;20564;-66
2023/04/13 11:22:22;;;;;;;21.83;13.37;;;19.80;81.50;;;;;;5002402;28;20269;-66
2023/04/13 11:24:50;;;;;;;17.03;12.60;;;20.00;82.20;;;;;;5005999;28;20293;-66
2023/04/13 11:27:22;;;;;;;16.40;12.17;;;20.20;82.10;;;;;;5003265;28;20197;-66
2023/04/13 11:30:06;;;;;;;14.83;12.30;;;20.40;80.40;;;;;;4999799;28;20602;-66
2023/04/13 11:32:34;;;;;;;12.87;11.33;;;20.50;79.40;;;;;;5006075;28;20208;-66
2023/04/13 11:35:21;;;;;;;14.07;12.17;;;20.50;78.40;;;;;;5001777;28;20292;-66
2023/04/13 11:37:51;;;;;;;14.47;11.77;;;20.60;78.60;;;;;;5007184;28;20206;-66
2023/04/13 11:40:26;;;;;;;16.93;13.63;;;20.70;77.90;;;;;;4998727;28;20208;-66
2023/04/13 11:42:57;;;;;;;15.73;12.70;;;20.80;79.00;;;;;;5005850;28;20280;-66
2023/04/13 11:45:26;;;;;;;15.43;13.20;;;21.00;79.20;;;;;;4998899;28;20235;-66
2023/04/13 11:47:55;;;;;;;14.57;12.67;;;21.10;76.70;;;;;;5005739;28;20227;-66
2023/04/13 11:50:23;;;;;;;16.30;13.40;;;21.10;76.70;;;;;;4999774;28;20610;-66
2023/04/13 11:52:57;;;;;;;16.47;13.73;;;20.90;76.40;;;;;;5005206;28;20196;-66
2023/04/13 11:55:25;;;;;;;16.23;13.50;;;20.60;77.30;;;;;;5002501;28;20211;-66
2023/04/13 11:57:53;;;;;;;15.60;13.07;;;20.30;77.80;;;;;;5005477;28;20655;-66
2023/04/13 12:00:24;;;;;;;15.50;13.77;;;20.00;78.90;;;;;;5003588;28;20208;-66
2023/04/13 12:02:56;;;;;;;17.47;13.57;;;19.60;80.20;;;;;;5000120;28;20247;-66
2023/04/13 12:05:28;;;;;;;14.80;13.20;;;19.40;80.50;;;;;;5007678;28;20211;-65
2023/04/13 12:07:57;;;;;;;18.50;13.87;;;19.10;81.10;;;;;;5000680;28;20224;-65
2023/04/13 12:10:26;;;;;;;16.33;13.97;;;18.80;80.70;;;;;;4999234;28;20636;-66
2023/04/13 12:13:08;;;;;;;17.60;14.53;;;18.50;81.90;;;;;;5001111;28;20286;-66
2023/04/13 12:15:51;;;;;;;15.07;13.47;;;18.20;82.80;;;;;;4999973;28;20209;-65
2023/04/13 12:18:42;;;;;;;21.00;14.43;;;18.10;83.80;;;;;;5005174;28;20656;-66
2023/04/13 12:21:15;;;;;;;18.43;15.13;;;18.00;84.50;;;;;;5006810;28;20328;-66
2023/04/13 12:23:57;;;;;;;18.50;15.57;;;18.00;85.60;;;;;;5000577;28;20235;-66
2023/04/13 12:26:33;;;;;;;18.90;15.67;;;18.00;85.90;;;;;;5000763;28;20210;-65
2023/04/13 12:29:06;;;;;;;18.53;14.73;;;18.00;85.50;;;;;;5007332;28;20193;-66
2023/04/13 12:31:35;;;;;;;19.50;15.10;;;18.10;85.80;;;;;;5005586;28;20214;-65
2023/04/13 12:34:02;;;;;;;16.17;14.47;;;18.10;85.20;;;;;;5005020;28;20636;-65
2023/04/13 12:36:34;;;;;;;18.10;14.80;;;18.10;84.80;;;;;;5006502;28;20208;-65
2023/04/13 12:39:03;;;;;;;16.73;14.97;;;18.00;84.30;;;;;;5007163;28;20248;-66
2023/04/13 12:41:31;;;;;;;16.00;13.60;;;18.00;84.50;;;;;;4998872;28;20205;-65
2023/04/13 12:43:58;;;;;;;20.30;15.60;;;18.00;84.50;;;;;;4985273;28;20245;-66
2023/04/13 12:46:25;;;;;;;17.53;15.40;;;17.90;86.00;;;;;;5003831;28;20643;-65